Time;durP1;ratioP1;P1;durP2;ratioP2;P2;SDS_P1;SDS_P2;PMS_P1;PMS_P2;Temp;Humidity;BMP_temperature;BMP_pressure;BME280_temperature;BME280_humidity;BME280_pressure;Samples;Min_cycle;Max_cycle;Signal;HPM_P1;HPM_P2
2023/05/16 00:00:36;;;;;;;14.83;2.50;;;11.10;99.90;;;;;;5073714;28;20257;-75
2023/05/16 00:03:03;;;;;;;13.60;2.63;;;11.00;99.90;;;;;;5072207;28;20160;-75
2023/05/16 00:05:31;;;;;;;16.40;2.30;;;11.10;99.90;;;;;;5072133;28;20187;-76
2023/05/16 00:07:56;;;;;;;14.00;2.10;;;11.00;99.90;;;;;;5073404;28;20195;-76
2023/05/16 00:10:22;;;;;;;15.77;2.30;;;10.90;99.90;;;;;;5073405;28;20167;-76
2023/05/16 00:12:50;;;;;;;13.53;3.07;;;10.80;99.90;;;;;;5072254;28;20167;-74
2023/05/16 00:15:17;;;;;;;10.67;1.63;;;10.70;99.90;;;;;;5073456;28;20151;-76
2023/05/16 00:17:45;;;;;;;12.13;2.23;;;10.80;99.90;;;;;;5073197;28;20182;-76
2023/05/16 00:20:12;;;;;;;13.17;2.10;;;10.80;99.90;;;;;;5073005;28;20525;-76
2023/05/16 00:22:39;;;;;;;17.17;2.53;;;10.90;99.90;;;;;;5072957;28;20191;-75
2023/05/16 00:25:05;;;;;;;15.93;2.37;;;10.80;99.90;;;;;;5073166;28;20188;-76
2023/05/16 00:27:32;;;;;;;12.30;2.30;;;10.70;99.90;;;;;;5072971;28;20246;-75
2023/05/16 00:29:59;;;;;;;16.50;3.07;;;10.70;99.90;;;;;;5073067;28;20163;-75
2023/05/16 00:32:25;;;;;;;13.17;2.40;;;10.70;99.90;;;;;;5073089;28;20185;-76
2023/05/16 00:34:51;;;;;;;18.33;3.20;;;10.70;99.90;;;;;;5072869;28;20152;-75
2023/05/16 00:37:17;;;;;;;14.33;2.07;;;10.70;99.90;;;;;;5071806;28;20232;-75
2023/05/16 00:39:42;;;;;;;12.57;2.10;;;10.60;99.90;;;;;;5071588;28;20609;-75
2023/05/16 00:42:11;;;;;;;15.90;2.40;;;10.50;99.90;;;;;;5073017;28;20221;-75
2023/05/16 00:44:37;;;;;;;9.73;2.37;;;10.50;99.90;;;;;;5072947;28;20180;-75
2023/05/16 00:47:03;;;;;;;12.60;2.23;;;10.50;99.90;;;;;;5072777;28;20276;-77
2023/05/16 00:49:29;;;;;;;13.63;2.07;;;10.50;99.90;;;;;;5072078;28;20419;-76
2023/05/16 00:51:57;;;;;;;16.10;2.20;;;10.60;99.90;;;;;;5071490;28;20166;-76
2023/05/16 00:54:25;;;;;;;14.67;2.50;;;10.60;99.90;;;;;;5073038;28;20594;-76
2023/05/16 00:56:53;;;;;;;16.40;2.87;;;10.50;99.90;;;;;;5071294;28;20179;-76
2023/05/16 00:59:20;;;;;;;14.53;2.37;;;10.40;99.90;;;;;;5071124;28;20183;-75
2023/05/16 01:01:46;;;;;;;12.23;2.70;;;10.40;99.90;;;;;;5072391;28;20628;-76
2023/05/16 01:04:14;;;;;;;11.80;2.57;;;10.40;99.90;;;;;;5072640;28;20687;-77
2023/05/16 01:06:40;;;;;;;15.17;2.70;;;10.30;99.90;;;;;;5071248;28;20166;-76
2023/05/16 01:09:07;;;;;;;12.87;2.30;;;10.30;99.90;;;;;;5072472;28;20912;-76
2023/05/16 01:11:44;;;;;;;11.57;2.33;;;10.30;99.90;;;;;;5072601;28;20581;-76
2023/05/16 01:14:28;;;;;;;7.57;1.80;;;10.30;99.90;;;;;;5072796;28;20281;-76
2023/05/16 01:17:19;;;;;;;15.20;2.03;;;10.10;99.90;;;;;;5071303;28;20673;-76
2023/05/16 01:20:00;;;;;;;13.40;2.30;;;10.10;99.90;;;;;;5071292;28;20187;-76
2023/05/16 01:22:44;;;;;;;17.17;2.87;;;10.00;99.90;;;;;;5071287;28;20177;-75
2023/05/16 01:25:44;;;;;;;14.43;2.40;;;10.10;99.90;;;;;;5071184;28;20245;-75
2023/05/16 01:28:14;;;;;;;12.70;1.97;;;10.10;99.90;;;;;;5072309;28;20231;-75
2023/05/16 01:30:41;;;;;;;13.83;2.27;;;10.00;99.90;;;;;;5071232;28;20179;-75
2023/05/16 01:33:08;;;;;;;13.37;3.13;;;10.00;99.90;;;;;;5071384;28;20653;-76
2023/05/16 01:35:43;;;;;;;16.20;2.43;;;10.00;99.90;;;;;;5071971;28;20254;-75
2023/05/16 01:38:25;;;;;;;15.00;2.63;;;10.10;99.90;;;;;;5073090;28;20313;-76
2023/05/16 01:40:54;;;;;;;18.07;2.57;;;10.10;99.90;;;;;;5072834;28;20209;-75
2023/05/16 01:43:29;;;;;;;11.23;2.17;;;9.90;99.90;;;;;;5071261;28;20316;-75
2023/05/16 01:46:02;;;;;;;14.30;2.80;;;10.00;99.90;;;;;;5072212;28;20434;-75
2023/05/16 01:48:39;;;;;;;12.90;2.33;;;10.00;99.90;;;;;;5072295;28;20244;-75
2023/05/16 01:51:06;;;;;;;12.30;2.00;;;9.90;99.90;;;;;;5070827;28;20163;-75
2023/05/16 01:53:38;;;;;;;12.50;2.27;;;9.90;99.90;;;;;;5072194;28;20163;-75
2023/05/16 01:56:08;;;;;;;14.57;2.80;;;9.90;99.90;;;;;;5070823;28;20221;-76
2023/05/16 01:58:36;;;;;;;13.50;2.43;;;9.80;99.90;;;;;;5070932;28;20175;-75
2023/05/16 02:01:04;;;;;;;13.73;2.47;;;9.80;99.90;;;;;;5073216;28;20181;-76
2023/05/16 02:03:30;;;;;;;14.20;2.30;;;9.80;99.90;;;;;;5074866;28;20534;-75
2023/05/16 02:05:56;;;;;;;11.57;2.63;;;9.70;99.90;;;;;;5075922;28;20171;-75
2023/05/16 02:08:27;;;;;;;16.90;2.07;;;9.70;99.90;;;;;;5075811;28;20552;-75
2023/05/16 02:10:55;;;;;;;14.17;2.37;;;9.70;99.90;;;;;;5074288;28;20160;-76
2023/05/16 02:13:21;;;;;;;9.77;1.70;;;9.80;99.90;;;;;;5074463;28;20258;-76
2023/05/16 02:15:49;;;;;;;11.37;2.30;;;9.80;99.90;;;;;;5075471;28;20198;-76
2023/05/16 02:18:17;;;;;;;18.87;2.60;;;9.70;99.90;;;;;;5075611;28;20179;-75
2023/05/16 02:20:49;;;;;;;12.97;2.03;;;9.70;99.90;;;;;;5075572;28;20672;-76
2023/05/16 02:23:15;;;;;;;13.53;2.23;;;9.60;99.90;;;;;;5074349;28;20183;-75
2023/05/16 02:25:41;;;;;;;12.33;2.20;;;9.50;99.90;;;;;;5075733;28;20159;-75
2023/05/16 02:28:06;;;;;;;12.67;2.20;;;9.50;99.90;;;;;;5075422;28;20218;-75
2023/05/16 02:30:34;;;;;;;12.57;2.20;;;9.50;99.90;;;;;;5075685;28;20183;-76
2023/05/16 02:33:00;;;;;;;11.03;2.20;;;9.50;99.90;;;;;;5075453;28;20185;-75
2023/05/16 02:35:26;;;;;;;12.20;2.10;;;9.40;99.90;;;;;;5074215;28;20254;-75
2023/05/16 02:37:52;;;;;;;10.80;2.97;;;9.40;99.90;;;;;;5075202;28;20574;-75
2023/05/16 02:40:21;;;;;;;13.40;2.33;;;9.60;99.90;;;;;;5073869;28;20301;-75
2023/05/16 02:42:47;;;;;;;14.77;2.27;;;9.80;99.90;;;;;;5075096;28;20203;-75
2023/05/16 02:45:13;;;;;;;14.40;2.93;;;9.60;99.90;;;;;;5075193;28;20196;-75
2023/05/16 02:47:41;;;;;;;15.23;2.77;;;9.60;99.90;;;;;;5073759;28;20186;-75
2023/05/16 02:50:09;;;;;;;14.47;2.43;;;9.50;99.90;;;;;;5074086;28;20312;-75
2023/05/16 02:52:37;;;;;;;13.13;2.87;;;9.70;99.90;;;;;;5074976;28;20168;-75
2023/05/16 02:55:02;;;;;;;12.57;2.37;;;9.70;99.90;;;;;;5074940;28;20155;-75
2023/05/16 02:57:29;;;;;;;8.00;2.03;;;9.70;99.90;;;;;;5073509;28;20663;-75
2023/05/16 02:59:55;;;;;;;14.97;2.37;;;9.60;99.90;;;;;;5074790;28;20163;-75
2023/05/16 03:02:27;;;;;;;14.13;2.43;;;9.50;99.90;;;;;;5074983;28;20199;-75
2023/05/16 03:04:53;;;;;;;16.10;3.33;;;9.40;99.90;;;;;;5073495;28;20566;-76
2023/05/16 03:07:19;;;;;;;13.00;2.80;;;9.30;99.90;;;;;;5074379;28;20285;-75
2023/05/16 03:09:45;;;;;;;15.57;2.97;;;9.40;99.90;;;;;;5074555;28;20213;-75
2023/05/16 03:12:10;;;;;;;13.57;2.77;;;9.40;99.90;;;;;;5074522;28;20217;-76
2023/05/16 03:14:36;;;;;;;12.10;2.50;;;9.40;99.90;;;;;;5073018;28;20178;-77
2023/05/16 03:17:02;;;;;;;15.20;2.37;;;9.40;99.90;;;;;;5073251;28;20197;-73
2023/05/16 03:19:28;;;;;;;14.00;2.60;;;9.40;99.90;;;;;;5072969;28;20572;-74
2023/05/16 03:21:54;;;;;;;12.23;2.77;;;9.40;99.90;;;;;;5074125;28;20154;-75
2023/05/16 03:24:21;;;;;;;15.43;3.23;;;9.30;99.90;;;;;;5072833;28;20190;-74
2023/05/16 03:26:47;;;;;;;10.00;2.40;;;9.30;99.90;;;;;;5073816;28;20233;-74
2023/05/16 03:29:13;;;;;;;15.30;2.67;;;9.10;99.90;;;;;;5072850;28;20282;-73
2023/05/16 03:31:39;;;;;;;14.07;2.40;;;8.90;99.90;;;;;;5072872;28;20738;-74
2023/05/16 03:34:05;;;;;;;13.90;2.97;;;9.00;99.90;;;;;;5072666;28;20233;-74
2023/05/16 03:36:30;;;;;;;17.60;3.10;;;9.10;99.90;;;;;;5074047;28;20175;-75
2023/05/16 03:38:56;;;;;;;13.30;2.93;;;9.10;99.90;;;;;;5073648;28;20512;-75
2023/05/16 03:41:22;;;;;;;16.17;2.90;;;9.00;99.90;;;;;;5072501;28;20166;-74
2023/05/16 03:43:47;;;;;;;24.80;3.20;;;9.10;99.90;;;;;;5073625;28;20623;-74
2023/05/16 03:46:13;;;;;;;15.57;3.13;;;9.10;99.90;;;;;;5073822;28;20565;-74
2023/05/16 03:48:40;;;;;;;14.73;2.30;;;9.10;99.90;;;;;;5072325;28;20202;-74
2023/05/16 03:51:05;;;;;;;11.83;2.70;;;9.20;99.90;;;;;;5072300;28;20195;-75
2023/05/16 03:53:32;;;;;;;11.73;2.63;;;9.10;99.90;;;;;;5073443;28;20167;-74
2023/05/16 03:55:58;;;;;;;11.67;2.50;;;9.00;99.90;;;;;;5073284;28;20174;-73
2023/05/16 03:58:24;;;;;;;14.43;3.20;;;9.00;99.90;;;;;;5073338;28;20201;-74
2023/05/16 04:00:49;;;;;;;9.40;2.40;;;8.90;99.90;;;;;;5072221;28;20175;-74
2023/05/16 04:03:16;;;;;;;11.20;2.47;;;8.90;99.90;;;;;;5071944;28;20546;-74
2023/05/16 04:05:43;;;;;;;16.33;2.90;;;8.90;99.90;;;;;;5073259;28;20164;-74
2023/05/16 04:08:11;;;;;;;11.37;2.70;;;8.90;99.90;;;;;;5071801;28;20222;-74
2023/05/16 04:10:37;;;;;;;16.17;2.60;;;9.00;99.90;;;;;;5071658;28;20178;-74
2023/05/16 04:13:02;;;;;;;15.53;3.83;;;9.10;99.90;;;;;;5073088;28;20155;-74
2023/05/16 04:15:29;;;;;;;17.87;2.60;;;9.10;99.90;;;;;;5073080;28;20642;-74
2023/05/16 04:17:55;;;;;;;18.27;3.03;;;9.10;99.90;;;;;;5071545;28;20266;-75
2023/05/16 04:20:21;;;;;;;9.63;2.63;;;9.00;99.90;;;;;;5071691;28;20254;-74
2023/05/16 04:22:47;;;;;;;11.10;3.10;;;9.00;99.90;;;;;;5072231;28;20160;-74
2023/05/16 04:25:13;;;;;;;16.10;2.90;;;9.00;99.90;;;;;;5071128;28;20221;-75
2023/05/16 04:27:39;;;;;;;16.13;3.47;;;9.10;99.90;;;;;;5071461;28;20222;-74
2023/05/16 04:30:06;;;;;;;13.80;2.60;;;9.10;99.90;;;;;;5071248;28;20186;-74
2023/05/16 04:32:34;;;;;;;11.97;2.83;;;9.10;99.90;;;;;;5072857;28;20155;-73
2023/05/16 04:35:00;;;;;;;13.97;2.83;;;9.20;99.90;;;;;;5071383;28;20220;-75
2023/05/16 04:37:25;;;;;;;12.83;3.20;;;9.30;99.90;;;;;;5072897;28;20163;-78
2023/05/16 04:39:51;;;;;;;14.63;3.27;;;9.30;99.90;;;;;;5072493;28;20623;-78
2023/05/16 04:42:18;;;;;;;15.23;2.83;;;9.40;99.90;;;;;;5072624;28;20159;-77
2023/05/16 04:44:46;;;;;;;20.77;2.93;;;9.30;99.90;;;;;;5071350;28;20171;-77
2023/05/16 04:47:13;;;;;;;12.23;2.77;;;9.40;99.90;;;;;;5071350;28;20220;-78
2023/05/16 04:49:38;;;;;;;13.00;3.37;;;9.40;99.90;;;;;;5071353;28;20653;-77
2023/05/16 04:52:07;;;;;;;15.07;3.40;;;9.30;99.90;;;;;;5071351;28;20261;-78
2023/05/16 04:54:33;;;;;;;10.57;2.37;;;9.30;99.90;;;;;;5070905;28;20482;-78
2023/05/16 04:57:00;;;;;;;15.53;2.73;;;9.40;99.90;;;;;;5072557;28;20156;-78
2023/05/16 04:59:26;;;;;;;9.83;2.30;;;9.40;99.90;;;;;;5071048;28;20206;-78
2023/05/16 05:01:53;;;;;;;14.73;2.60;;;9.50;99.90;;;;;;5072341;28;20601;-77
2023/05/16 05:04:18;;;;;;;7.23;2.20;;;9.70;99.90;;;;;;5072160;28;20171;-78
2023/05/16 05:06:44;;;;;;;15.73;3.00;;;9.70;99.90;;;;;;5072290;28;20160;-77
2023/05/16 05:09:10;;;;;;;11.73;2.50;;;9.70;99.90;;;;;;5072004;28;20264;-77
2023/05/16 05:11:35;;;;;;;16.13;2.57;;;9.60;99.90;;;;;;5070985;28;20251;-79
2023/05/16 05:14:01;;;;;;;18.33;3.77;;;9.60;99.90;;;;;;5072476;28;20167;-78
2023/05/16 05:16:28;;;;;;;10.60;2.40;;;9.60;99.90;;;;;;5071271;28;20167;-77
2023/05/16 05:18:53;;;;;;;12.60;2.60;;;9.60;99.90;;;;;;5071211;28;20312;-77
2023/05/16 05:21:19;;;;;;;6.80;2.10;;;9.70;99.90;;;;;;5072278;28;20205;-78
2023/05/16 05:23:45;;;;;;;10.53;1.93;;;9.80;99.90;;;;;;5072040;28;20189;-78
2023/05/16 05:26:11;;;;;;;11.50;2.80;;;9.90;99.90;;;;;;5071926;28;20254;-77
2023/05/16 05:28:37;;;;;;;16.60;2.63;;;9.90;99.90;;;;;;5070597;28;20372;-78
2023/05/16 05:31:04;;;;;;;15.13;2.63;;;9.80;99.90;;;;;;5070674;28;20170;-78
2023/05/16 05:33:30;;;;;;;10.37;2.53;;;9.80;99.90;;;;;;5071982;28;20167;-78
2023/05/16 05:35:56;;;;;;;8.30;1.83;;;9.80;99.90;;;;;;5073071;28;20228;-77
2023/05/16 05:38:23;;;;;;;13.03;2.47;;;9.80;99.90;;;;;;5075760;28;20179;-77
2023/05/16 05:40:54;;;;;;;14.87;2.57;;;9.90;99.90;;;;;;5075868;28;20159;-77
2023/05/16 05:43:21;;;;;;;7.63;1.70;;;10.00;99.90;;;;;;5074657;28;20245;-78
2023/05/16 05:45:46;;;;;;;6.20;1.50;;;10.00;99.90;;;;;;5075981;28;20175;-78
2023/05/16 05:48:12;;;;;;;15.47;2.43;;;10.10;99.90;;;;;;5074262;28;20191;-78
2023/05/16 05:50:38;;;;;;;12.63;2.03;;;10.20;99.90;;;;;;5075586;28;20148;-78
2023/05/16 05:53:05;;;;;;;11.67;2.43;;;10.20;99.90;;;;;;5075586;28;20258;-77
2023/05/16 05:55:31;;;;;;;12.70;2.77;;;10.30;99.90;;;;;;5074253;28;20584;-79
2023/05/16 05:57:57;;;;;;;8.87;2.17;;;10.30;99.90;;;;;;5074106;28;20171;-79
2023/05/16 06:00:23;;;;;;;12.77;2.17;;;10.40;99.90;;;;;;5074016;28;20573;-78
2023/05/16 06:02:48;;;;;;;10.43;2.37;;;10.50;99.90;;;;;;5075527;28;20208;-78
2023/05/16 06:05:15;;;;;;;9.53;1.93;;;10.60;99.90;;;;;;5074841;28;20178;-78
2023/05/16 06:07:42;;;;;;;11.23;2.63;;;10.50;99.90;;;;;;5076337;28;20198;-79
2023/05/16 06:10:08;;;;;;;12.63;2.10;;;10.60;99.90;;;;;;5075705;28;20532;-78
2023/05/16 06:12:34;;;;;;;7.73;1.83;;;10.70;99.90;;;;;;5076258;28;20149;-78
2023/05/16 06:15:00;;;;;;;12.13;2.40;;;10.80;99.90;;;;;;5076096;28;20184;-78
2023/05/16 06:17:25;;;;;;;4.57;1.80;;;10.90;99.90;;;;;;5076140;28;20265;-78
2023/05/16 06:19:51;;;;;;;9.93;1.83;;;11.00;99.90;;;;;;5076042;28;20166;-78
2023/05/16 06:22:17;;;;;;;6.07;1.73;;;11.10;99.90;;;;;;5076365;28;20161;-76
2023/05/16 06:24:43;;;;;;;10.33;2.33;;;11.10;99.90;;;;;;5075112;28;20587;-77
2023/05/16 06:27:09;;;;;;;7.00;1.87;;;11.10;99.90;;;;;;5075238;28;20190;-77
2023/05/16 06:29:35;;;;;;;9.33;2.37;;;11.30;99.90;;;;;;5075411;28;20172;-77
2023/05/16 06:32:03;;;;;;;15.00;1.93;;;11.30;99.90;;;;;;5074976;28;20171;-77
2023/05/16 06:34:29;;;;;;;15.20;2.07;;;11.30;99.90;;;;;;5074999;28;20168;-77
2023/05/16 06:36:56;;;;;;;11.00;1.67;;;11.30;99.90;;;;;;5075028;28;20239;-77
2023/05/16 06:39:21;;;;;;;8.83;2.10;;;11.50;99.90;;;;;;5075449;28;20167;-77
2023/05/16 06:41:48;;;;;;;9.43;1.70;;;11.50;99.90;;;;;;5074041;28;20276;-76
2023/05/16 06:44:16;;;;;;;5.50;1.70;;;11.70;99.90;;;;;;5075213;28;20159;-76
2023/05/16 06:46:42;;;;;;;11.10;2.00;;;11.70;99.90;;;;;;5074778;28;20187;-76
2023/05/16 06:49:08;;;;;;;11.37;2.30;;;12.00;99.90;;;;;;5075097;28;20196;-76
2023/05/16 06:51:34;;;;;;;5.30;1.47;;;12.00;99.90;;;;;;5074632;28;20215;-76
2023/05/16 06:53:59;;;;;;;10.17;1.77;;;11.80;99.90;;;;;;5075336;28;20163;-77
2023/05/16 06:56:25;;;;;;;8.30;2.03;;;11.80;99.90;;;;;;5074945;28;20217;-76
2023/05/16 06:58:51;;;;;;;13.93;1.97;;;11.90;99.90;;;;;;5073427;28;20183;-76
2023/05/16 07:01:16;;;;;;;9.97;2.40;;;11.90;99.90;;;;;;5074857;28;20160;-76
2023/05/16 07:03:42;;;;;;;8.43;1.37;;;11.90;99.90;;;;;;5073762;28;20178;-76
2023/05/16 07:06:08;;;;;;;7.93;1.63;;;11.90;99.90;;;;;;5074758;28;20168;-77
2023/05/16 07:08:35;;;;;;;7.03;1.33;;;12.10;99.90;;;;;;5074352;28;20191;-77
2023/05/16 07:11:00;;;;;;;5.83;1.50;;;12.10;99.90;;;;;;5074560;28;20181;-77
2023/05/16 07:13:27;;;;;;;9.00;1.70;;;12.10;99.90;;;;;;5073347;28;20169;-77
2023/05/16 07:15:53;;;;;;;10.77;1.77;;;12.20;99.90;;;;;;5075024;28;20157;-76
2023/05/16 07:18:18;;;;;;;7.33;1.60;;;12.40;99.90;;;;;;5074396;28;20528;-76
2023/05/16 07:20:44;;;;;;;8.90;2.23;;;12.30;99.90;;;;;;5074181;28;20187;-76
2023/05/16 07:23:10;;;;;;;7.67;1.60;;;12.50;99.90;;;;;;5073677;28;20218;-78
2023/05/16 07:25:36;;;;;;;9.20;1.77;;;12.60;99.90;;;;;;5072856;28;20176;-78
2023/05/16 07:28:04;;;;;;;10.73;1.60;;;12.60;99.90;;;;;;5074093;28;20292;-78
2023/05/16 07:30:30;;;;;;;10.60;1.60;;;12.60;99.90;;;;;;5072621;28;20648;-78
2023/05/16 07:32:55;;;;;;;8.67;1.60;;;12.70;99.90;;;;;;5073857;28;20176;-76
2023/05/16 07:35:21;;;;;;;10.97;1.70;;;12.80;99.90;;;;;;5074931;28;20178;-79
2023/05/16 07:37:47;;;;;;;6.50;1.20;;;12.70;99.90;;;;;;5074613;28;20163;-78
2023/05/16 07:40:13;;;;;;;8.33;1.17;;;12.70;99.90;;;;;;5074028;28;20604;-78
2023/05/16 07:42:39;;;;;;;9.17;1.33;;;12.70;99.90;;;;;;5072832;28;20702;-78
2023/05/16 07:45:06;;;;;;;8.33;1.87;;;12.80;99.90;;;;;;5073889;28;20177;-77
2023/05/16 07:47:32;;;;;;;5.77;1.40;;;12.80;99.90;;;;;;5072351;28;20212;-77
2023/05/16 07:49:57;;;;;;;7.53;1.50;;;12.80;99.90;;;;;;5073311;28;20162;-78
2023/05/16 07:52:23;;;;;;;8.50;1.50;;;12.60;99.90;;;;;;5073577;28;20155;-77
2023/05/16 07:54:49;;;;;;;6.17;1.33;;;12.70;99.90;;;;;;5073796;28;20250;-77
2023/05/16 07:57:17;;;;;;;7.57;1.50;;;12.70;99.90;;;;;;5073201;28;20649;-76
2023/05/16 07:59:43;;;;;;;6.83;1.50;;;12.80;99.90;;;;;;5073292;28;20179;-77
2023/05/16 08:02:10;;;;;;;7.53;1.33;;;13.20;99.90;;;;;;5072582;28;20163;-79
2023/05/16 08:04:36;;;;;;;7.03;1.30;;;13.40;99.90;;;;;;5073158;28;20176;-77
2023/05/16 08:07:02;;;;;;;7.23;1.13;;;13.40;99.90;;;;;;5074156;28;20514;-77
2023/05/16 08:09:30;;;;;;;11.77;1.70;;;13.50;99.90;;;;;;5072571;28;20299;-77
2023/05/16 08:11:55;;;;;;;11.97;1.77;;;13.50;99.90;;;;;;5073419;28;20180;-75
2023/05/16 08:14:21;;;;;;;4.73;1.20;;;13.40;99.90;;;;;;5072093;28;20486;-75
2023/05/16 08:16:47;;;;;;;9.23;1.37;;;13.30;99.90;;;;;;5073204;28;20186;-76
2023/05/16 08:19:12;;;;;;;5.10;1.10;;;13.10;99.90;;;;;;5073064;28;20193;-77
2023/05/16 08:21:38;;;;;;;10.27;1.63;;;13.10;99.90;;;;;;5072996;28;20627;-77
2023/05/16 08:24:04;;;;;;;6.13;1.20;;;13.20;99.90;;;;;;5072747;28;20189;-76
2023/05/16 08:26:31;;;;;;;8.13;2.30;;;13.50;99.90;;;;;;5072778;28;20171;-76
2023/05/16 08:28:56;;;;;;;6.50;1.67;;;13.70;99.90;;;;;;5072583;28;20219;-76
2023/05/16 08:31:22;;;;;;;8.03;1.43;;;14.00;99.90;;;;;;5072521;28;20237;-76
2023/05/16 08:33:47;;;;;;;9.10;2.97;;;14.20;99.90;;;;;;5071416;28;20843;-76
2023/05/16 08:36:14;;;;;;;5.30;1.00;;;14.20;99.90;;;;;;5071510;28;20179;-76
2023/05/16 08:38:40;;;;;;;6.47;1.17;;;14.20;99.90;;;;;;5071260;28;20182;-76
2023/05/16 08:41:07;;;;;;;5.87;1.00;;;14.20;99.90;;;;;;5071540;28;20177;-76
2023/05/16 08:43:34;;;;;;;3.90;1.00;;;14.20;99.90;;;;;;5072837;28;20174;-76
2023/05/16 08:45:59;;;;;;;6.60;1.00;;;14.10;99.90;;;;;;5072958;28;20171;-76
2023/05/16 08:48:27;;;;;;;4.83;0.97;;;14.00;99.90;;;;;;5072182;28;20189;-76
2023/05/16 08:50:53;;;;;;;6.10;1.03;;;13.90;99.90;;;;;;5072816;28;20174;-76
2023/05/16 08:53:24;;;;;;;5.60;1.03;;;13.80;99.90;;;;;;5072452;28;20725;-76
2023/05/16 08:55:50;;;;;;;4.50;1.13;;;13.80;99.90;;;;;;5072426;28;20166;-76
2023/05/16 08:58:16;;;;;;;7.73;2.30;;;13.90;99.90;;;;;;5071859;28;20255;-77
2023/05/16 09:00:43;;;;;;;9.97;1.60;;;13.80;99.90;;;;;;5072962;28;20167;-77
2023/05/16 09:03:10;;;;;;;10.53;1.50;;;13.90;99.90;;;;;;5072965;28;20161;-77
2023/05/16 09:05:36;;;;;;;5.50;1.63;;;13.90;99.90;;;;;;5072219;28;20206;-75
2023/05/16 09:08:01;;;;;;;9.00;1.50;;;14.00;99.90;;;;;;5072855;28;20235;-75
2023/05/16 09:10:27;;;;;;;5.87;1.77;;;14.00;99.90;;;;;;5072736;28;20166;-75
2023/05/16 09:12:54;;;;;;;4.47;1.47;;;14.10;99.90;;;;;;5072953;28;20253;-75
2023/05/16 09:15:20;;;;;;;4.63;1.40;;;14.10;99.90;;;;;;5072609;28;20154;-75
2023/05/16 09:17:46;;;;;;;7.60;1.27;;;14.40;99.90;;;;;;5071643;28;20181;-75
2023/05/16 09:20:19;;;;;;;6.27;1.33;;;14.80;99.90;;;;;;5072582;28;20167;-75
2023/05/16 09:22:56;;;;;;;6.33;1.13;;;14.80;99.90;;;;;;5072741;28;20185;-75
2023/05/16 09:25:24;;;;;;;3.33;1.00;;;15.10;99.90;;;;;;5072703;28;20202;-75
2023/05/16 09:27:54;;;;;;;6.50;1.93;;;15.30;99.90;;;;;;5071297;28;20179;-75
2023/05/16 09:30:31;;;;;;;3.87;0.90;;;15.30;99.90;;;;;;5072272;28;20737;-76
2023/05/16 09:32:57;;;;;;;7.73;1.20;;;15.20;99.90;;;;;;5071529;28;20687;-75
2023/05/16 09:35:23;;;;;;;6.27;1.57;;;15.10;99.90;;;;;;5071549;28;20254;-76
2023/05/16 09:37:53;;;;;;;5.70;1.27;;;15.20;99.90;;;;;;5073306;28;20187;-77
2023/05/16 09:40:22;;;;;;;4.67;1.13;;;15.20;99.90;;;;;;5072965;28;20171;-76
2023/05/16 09:43:04;;;;;;;7.07;1.20;;;15.30;99.90;;;;;;5073129;28;20238;-76
2023/05/16 09:45:31;;;;;;;6.17;1.40;;;15.20;99.90;;;;;;5072904;28;20540;-76
2023/05/16 09:48:07;;;;;;;6.57;1.10;;;15.00;99.90;;;;;;5072652;28;20183;-75
2023/05/16 09:50:34;;;;;;;3.90;1.00;;;14.70;99.90;;;;;;5070892;28;20212;-75
2023/05/16 09:53:01;;;;;;;9.20;1.03;;;14.80;99.90;;;;;;5072553;28;20205;-75
2023/05/16 09:55:27;;;;;;;3.67;1.10;;;14.90;99.90;;;;;;5071284;28;20579;-75
2023/05/16 09:57:53;;;;;;;6.07;1.03;;;14.90;99.90;;;;;;5072391;28;20194;-76
2023/05/16 10:00:18;;;;;;;3.87;0.73;;;14.80;99.90;;;;;;5072135;28;20580;-75
2023/05/16 10:02:44;;;;;;;5.03;1.37;;;14.90;99.90;;;;;;5072171;28;20167;-75
2023/05/16 10:05:10;;;;;;;3.87;0.80;;;15.30;99.90;;;;;;5071035;28;20171;-75
2023/05/16 10:07:38;;;;;;;4.97;1.10;;;15.30;99.70;;;;;;5070690;28;20268;-75
2023/05/16 10:10:08;;;;;;;6.67;1.07;;;15.30;98.60;;;;;;5070805;28;20159;-75
2023/05/16 10:12:37;;;;;;;12.57;3.10;;;15.10;98.90;;;;;;5071944;28;20812;-75
2023/05/16 10:15:04;;;;;;;9.70;1.73;;;15.30;98.70;;;;;;5070876;28;20163;-75
2023/05/16 10:17:33;;;;;;;5.50;1.10;;;15.30;98.50;;;;;;5071907;28;20171;-75
2023/05/16 10:20:06;;;;;;;4.40;1.10;;;15.40;98.50;;;;;;5071124;28;20173;-75
2023/05/16 10:22:34;;;;;;;3.97;0.83;;;15.50;98.90;;;;;;5074181;28;20526;-75
2023/05/16 10:25:16;;;;;;;4.90;1.10;;;15.50;97.70;;;;;;5074695;28;20186;-75
2023/05/16 10:27:42;;;;;;;7.17;1.90;;;15.50;97.70;;;;;;5074129;28;20270;-75
2023/05/16 10:30:09;;;;;;;3.60;1.00;;;15.40;98.30;;;;;;5076719;28;20156;-75
2023/05/16 10:32:37;;;;;;;5.10;1.07;;;15.50;97.20;;;;;;5074883;28;20162;-75
2023/05/16 10:35:03;;;;;;;5.53;0.93;;;15.70;97.20;;;;;;5075138;28;20167;-75
2023/05/16 10:37:31;;;;;;;3.57;1.10;;;15.80;96.30;;;;;;5074874;28;20175;-75
2023/05/16 10:40:00;;;;;;;6.33;1.40;;;16.00;95.70;;;;;;5074897;28;20167;-75
2023/05/16 10:42:25;;;;;;;4.20;1.07;;;16.10;95.20;;;;;;5074751;28;20195;-75
2023/05/16 10:44:57;;;;;;;5.80;1.00;;;16.10;95.60;;;;;;5074871;28;20210;-76
2023/05/16 10:47:25;;;;;;;3.67;0.70;;;16.20;95.70;;;;;;5074616;28;20158;-76
2023/05/16 10:49:51;;;;;;;4.00;1.00;;;16.20;95.80;;;;;;5074961;28;20143;-76
2023/05/16 10:52:16;;;;;;;6.07;1.27;;;16.00;95.70;;;;;;5073929;28;20224;-76
2023/05/16 10:54:51;;;;;;;7.10;0.97;;;16.00;96.40;;;;;;5075020;28;20609;-76
2023/05/16 10:57:22;;;;;;;7.07;1.10;;;16.20;96.90;;;;;;5073456;28;20159;-76
2023/05/16 10:59:50;;;;;;;5.03;0.70;;;16.50;96.10;;;;;;5073532;28;20171;-76
2023/05/16 11:02:28;;;;;;;9.97;1.03;;;16.30;95.70;;;;;;5074663;28;20163;-76
2023/05/16 11:04:58;;;;;;;7.23;1.30;;;16.50;96.40;;;;;;5073830;28;20163;-76
2023/05/16 11:07:25;;;;;;;3.97;0.77;;;16.50;96.30;;;;;;5073204;28;20159;-76
2023/05/16 11:10:17;;;;;;;5.90;0.93;;;16.40;95.90;;;;;;5074819;28;20157;-76
2023/05/16 11:12:48;;;;;;;6.77;1.17;;;16.40;95.40;;;;;;5070681;28;20184;-76
2023/05/16 11:15:30;;;;;;;3.97;0.80;;;17.00;95.70;;;;;;5074468;28;20174;-76
2023/05/16 11:18:13;;;;;;;6.53;0.90;;;16.80;95.40;;;;;;5075409;28;20156;-76
2023/05/16 11:20:39;;;;;;;4.70;1.20;;;16.40;96.00;;;;;;5075154;28;20214;-76
2023/05/16 11:23:17;;;;;;;6.90;0.97;;;16.60;95.60;;;;;;5072713;28;20175;-76
2023/05/16 11:25:45;;;;;;;8.77;0.97;;;17.00;93.90;;;;;;5072707;28;20175;-76
2023/05/16 11:28:14;;;;;;;5.00;0.90;;;17.30;93.90;;;;;;5073701;28;20608;-77
2023/05/16 11:30:58;;;;;;;4.30;0.93;;;17.50;92.90;;;;;;5073891;28;20168;-76
2023/05/16 11:33:24;;;;;;;2.27;1.03;;;17.90;93.40;;;;;;5073588;28;20234;-75
2023/05/16 11:36:02;;;;;;;6.10;1.00;;;17.60;94.00;;;;;;5074385;28;20161;-74
2023/05/16 11:38:32;;;;;;;4.20;0.97;;;17.50;94.20;;;;;;5074270;28;20669;-74
2023/05/16 11:41:06;;;;;;;5.13;0.87;;;17.30;94.10;;;;;;5072678;28;20175;-77
2023/05/16 11:43:43;;;;;;;6.90;1.30;;;17.10;94.20;;;;;;5074662;28;20253;-75
2023/05/16 11:46:13;;;;;;;5.37;1.07;;;17.80;93.70;;;;;;5074026;28;20610;-76
2023/05/16 11:48:39;;;;;;;3.07;0.90;;;18.20;93.00;;;;;;5073702;28;20182;-74
2023/05/16 11:51:06;;;;;;;7.13;1.20;;;18.30;93.00;;;;;;5072457;28;20174;-75
2023/05/16 11:53:33;;;;;;;6.83;1.17;;;17.70;92.80;;;;;;5073976;28;20218;-75
2023/05/16 11:56:00;;;;;;;4.40;1.00;;;17.60;93.30;;;;;;5073740;28;20148;-75
2023/05/16 11:58:27;;;;;;;5.10;0.90;;;17.50;94.00;;;;;;5072388;28;20169;-76
2023/05/16 12:00:56;;;;;;;5.33;1.00;;;18.20;93.50;;;;;;5072479;28;20169;-76
2023/05/16 12:03:23;;;;;;;3.43;1.00;;;18.30;93.70;;;;;;5071989;28;20176;-76
2023/05/16 12:05:51;;;;;;;6.13;1.27;;;18.40;92.70;;;;;;5073259;28;20640;-76
2023/05/16 12:08:17;;;;;;;4.93;0.83;;;17.90;93.60;;;;;;5073272;28;20196;-76
2023/05/16 12:10:43;;;;;;;8.37;1.10;;;17.90;93.30;;;;;;5071919;28;20164;-76
2023/05/16 12:13:09;;;;;;;5.00;0.90;;;18.40;93.50;;;;;;5071978;28;20205;-75
2023/05/16 12:15:41;;;;;;;4.73;1.10;;;18.20;93.10;;;;;;5073356;28;20155;-76
2023/05/16 12:18:09;;;;;;;6.97;1.00;;;18.30;92.50;;;;;;5072986;28;20184;-76
2023/05/16 12:20:35;;;;;;;7.57;1.33;;;18.40;91.80;;;;;;5073146;28;20167;-76
2023/05/16 12:23:00;;;;;;;6.07;1.13;;;18.30;91.60;;;;;;5073519;28;20185;-76
2023/05/16 12:25:26;;;;;;;6.63;1.13;;;18.10;91.60;;;;;;5073063;28;20185;-76
2023/05/16 12:27:57;;;;;;;5.10;1.07;;;18.30;91.70;;;;;;5071757;28;20286;-75
2023/05/16 12:30:26;;;;;;;5.87;0.90;;;18.20;92.00;;;;;;5073348;28;20183;-75
2023/05/16 12:32:59;;;;;;;3.50;1.10;;;18.60;91.70;;;;;;5073130;28;20204;-75
2023/05/16 12:35:32;;;;;;;6.70;1.10;;;19.30;90.60;;;;;;5073825;28;20530;-77
2023/05/16 12:37:58;;;;;;;5.53;1.00;;;19.60;90.00;;;;;;5072637;28;20585;-75
2023/05/16 12:40:27;;;;;;;5.07;1.10;;;19.20;89.30;;;;;;5071155;28;20182;-75
2023/05/16 12:42:53;;;;;;;2.13;0.77;;;19.10;88.80;;;;;;5072960;28;20192;-75
2023/05/16 12:45:20;;;;;;;4.97;1.30;;;19.80;87.00;;;;;;5072101;28;20164;-75
2023/05/16 12:47:47;;;;;;;2.73;0.73;;;20.50;85.80;;;;;;5072582;28;20633;-75